Butler, Ohio
Current Conditions -  °F | °C
As of 11:52 PM on Friday 24 Oct 2014 (Local Time) from KMFD Reporting Station
Clear Clear  
Wind Chill: 47°   Ceiling: Unl
Heat Index: 49°   Visibility: 10mi
Dew Point: 38°   Wind: 5mph
Humidity: 66%   Direction: 220°SW
Pressure: 30.01"   Gusts: NA
Location:  40.59°N, 82.42°W
Report Text: KMFD 250352Z 22004KT 10SM CLR 09/03 A3001 RMK AO2 SLP163 T00940033
Loading
Personal Weather Stations






























Interactive Weather Map
Tropical Storm Tracking
New forecast layout! Learn more

10-Day Weather Forecast

Advertisements
Track Severe Weather on mobile